Kayjay, Kentucky
Current Conditions -  °F | °C
As of 1:53 PM on Thursday 30 Oct 2014 (Local Time) from KLOZ Reporting Station
Clear Clear  
Wind Chill: 54°   Ceiling: Unl
Heat Index: 54°   Visibility: 10mi
Dew Point: 36°   Wind: 5mph
Humidity: 51%   Direction: NA
Pressure: 30.09"   Gusts: NA
Location:  36.865°N, 83.9507°W
Report Text: KLOZ 301753Z AUTO VRB04KT 10SM CLR 12/02 A3009 RMK AO2 SLP191 T01220022 10133 20033 58020
Loading
Personal Weather Stations






























Interactive Weather Map
Tropical Storm Tracking
New forecast layout! Learn more

10-Day Weather Forecast

Advertisements
Track Severe Weather on mobile